Flight Track Log - Related Links

Times and Time Zones

All times are in EDT time to prevent confusion due to time zone crossing. See the N618JB flight status page for this flight to view local times or setup timezone preferences in your user account.

Time Position Orientation Groundspeed Altitude Reporting Facility
EDT Latitude Longitude Course Direction KTS MPH feet Rate Location/Type
Mon 11:42:41 AM 40.6167 -73.7833 226° Southwest 145 167 1,900  Level New York TRACON
Mon 11:43:41 AM 40.5667 -73.8167 207° Southwest 246 283 3,600 3,053 Climbing New York TRACON
Mon 11:44:35 AM 40.5167 -73.8667 217° Southwest 237 273 7,700 3,737 Climbing New York TRACON
Mon 11:45:00 AM 40.3592 -74.2124 232° Southwest  Level FlightAware Approximate
Mon 11:45:35 AM 40.4667 -73.9333 225° Southwest 248 285 10,700  Level New York TRACON
Mon 11:46:00 AM 40.2910 -74.3262 232° Southwest  Level FlightAware Approximate
Mon 11:46:41 AM 40.4167 -74.0333 237° Southwest 333 383 11,100  Level New York TRACON
Mon 11:47:00 AM 40.2238 -74.4349 226° Southwest  Level FlightAware Approximate
Mon 11:47:35 AM 40.3667 -74.1333 237° Southwest 347 399 12,900  Level New York TRACON
Mon 11:48:04 AM 40.3564 -74.1672 248° West 345 397 13,000 1,079 Climbing New York Center
Mon 11:49:04 AM 40.3111 -74.2931 245° Southwest 345 397 14,500 1,686 Climbing New York Center
Mon 11:50:05 AM 40.2931 -74.4064 258° West 350 403 16,400 1,820 Climbing New York Center
Mon 11:51:06 AM 40.2653 -74.5572 256° West 371 427 18,200 1,934 Climbing New York Center
Mon 11:52:06 AM 40.2442 -74.6947 259° West 388 447 20,300 1,949 Climbing New York Center
Mon 11:53:03 AM 40.2231 -74.8242 258° West 404 465 22,000 1,714 Climbing New York Center
Mon 11:54:05 AM 40.1989 -74.9775 258° West 404 465 23,700 2,016 Climbing New York Center
Mon 11:55:05 AM 40.1753 -75.1147 257° West 404 465 26,100 1,934 Climbing New York Center
Mon 11:56:06 AM 40.1533 -75.2544 258° West 399 459 27,600 1,438 Climbing New York Center
Mon 11:57:06 AM 40.1131 -75.3822 248° West 387 445 29,000 1,261 Climbing New York Center
Mon 11:58:05 AM 40.0500 -75.4975 234° Southwest 376 433 30,100 1,322 Climbing New York Center
Mon 11:59:04 AM 39.9750 -75.5981 226° Southwest 388 447 31,600 1,513 Climbing New York Center
Mon 12:00:04 PM 39.9042 -75.7014 228° Southwest 393 452 33,100 1,339 Climbing New York Center
Mon 12:01:05 PM 39.8417 -75.7997 230° Southwest 393 452 34,300 1,289 Climbing New York Center
Mon 12:02:05 PM 39.7747 -75.9031 230° Southwest 388 447 35,700 992 Climbing New York Center
Mon 12:03:06 PM 39.7094 -76.0117 232° Southwest 388 447 36,300 615 Climbing New York Center
Mon 12:04:41 PM 39.5997 -76.1814 230° Southwest 385 443 37,300 615 Climbing Washington Center
Mon 12:05:42 PM 39.5325 -76.2883 231° Southwest 385 443 37,900 353 Climbing Washington Center
Mon 12:06:40 PM 39.4608 -76.3953 229° Southwest 391 450 38,000 51 Climbing Washington Center
Mon 12:07:40 PM 39.3892 -76.5019 229° Southwest 397 457 38,000  Level Washington Center
Mon 12:08:40 PM 39.3133 -76.6217 231° Southwest 397 457 38,000  Level Washington Center
Mon 12:09:41 PM 39.2436 -76.7278 230° Southwest 397 457 38,000  Level Washington Center
Mon 12:10:39 PM 39.1758 -76.8367 231° Southwest 397 457 38,000  Level Washington Center
Mon 12:11:40 PM 39.1081 -76.9425 230° Southwest 397 457 38,000  Level Washington Center
Mon 12:12:41 PM 39.0381 -77.0453 229° Southwest 397 457 38,000  Level Washington Center
Mon 12:13:41 PM 38.9556 -77.1372 221° Southwest 397 457 38,000  Level Washington Center
Mon 12:14:40 PM 38.8731 -77.2261 220° Southwest 391 450 38,000  Level Washington Center
Mon 12:15:40 PM 38.7883 -77.3175 220° Southwest 391 450 38,000  Level Washington Center
Mon 12:16:40 PM 38.7058 -77.4086 221° Southwest 396 456 38,000  Level Washington Center
Mon 12:17:41 PM 38.6231 -77.4997 221° Southwest 396 456 38,000  Level Washington Center
Mon 12:18:41 PM 38.5383 -77.5903 220° Southwest 401 461 38,000  Level Washington Center
Mon 12:19:40 PM 38.4533 -77.6836 221° Southwest 401 461 38,000  Level Washington Center
Mon 12:20:40 PM 38.3789 -77.7661 221° Southwest 401 461 38,000  Level Washington Center
Mon 12:21:41 PM 38.2936 -77.8564 220° Southwest 401 461 38,000  Level Washington Center
Mon 12:22:42 PM 38.2086 -77.9461 220° Southwest 401 461 38,000  Level Washington Center
Mon 12:23:40 PM 38.1275 -78.0361 221° Southwest 396 456 38,000  Level Washington Center
Mon 12:24:40 PM 38.0422 -78.1256 220° Southwest 396 456 38,000  Level Washington Center
Mon 12:25:41 PM 37.9611 -78.2125 220° Southwest 396 456 38,000  Level Washington Center
Mon 12:26:40 PM 37.8717 -78.2936 216° Southwest 391 450 38,000  Level Washington Center
Mon 12:27:40 PM 37.7758 -78.3872 218° Southwest 396 456 38,000  Level Washington Center
Mon 12:28:41 PM 37.6861 -78.4678 215° Southwest 402 463 38,000  Level Washington Center
Mon 12:29:41 PM 37.5986 -78.5511 217° Southwest 402 463 38,000  Level Washington Center
Mon 12:30:41 PM 37.5089 -78.6339 216° Southwest 402 463 38,000  Level Washington Center
Mon 12:31:40 PM 37.4278 -78.7092 216° Southwest 402 463 38,000  Level Washington Center
Mon 12:32:40 PM 37.3400 -78.7919 217° Southwest 402 463 38,000  Level Washington Center
Mon 12:33:41 PM 37.2481 -78.8767 216° Southwest 402 463 38,000  Level Washington Center
Mon 12:34:42 PM 37.1581 -78.9614 217° Southwest 402 463 38,000  Level Washington Center
Mon 12:35:42 PM 37.0661 -79.0433 215° Southwest 402 463 38,000  Level Washington Center
Mon 12:36:39 PM 36.9694 -79.1353 217° Southwest 402 463 38,000  Level Washington Center
Mon 12:37:40 PM 36.8772 -79.2167 215° Southwest 402 463 38,000  Level Washington Center
Mon 12:38:41 PM 36.7872 -79.3006 217° Southwest 407 468 38,000  Level Washington Center
Mon 12:39:42 PM 36.6969 -79.3844 217° Southwest 407 468 38,000  Level Washington Center
Mon 12:40:42 PM 36.6086 -79.4681 217° Southwest 407 468 38,000  Level Washington Center
Mon 12:42:43 PM 36.4194 -79.6347 215° Southwest 398 458 38,000  Level Atlanta Center
Mon 12:43:43 PM 36.3306 -79.7169 217° Southwest 406 467 38,000  Level Atlanta Center
Mon 12:44:43 PM 36.2414 -79.7964 216° Southwest 419 482 38,000  Level Atlanta Center
Mon 12:45:43 PM 36.1503 -79.8756 215° Southwest 408 470 38,000  Level Atlanta Center
Mon 12:46:43 PM 36.0592 -79.9575 216° Southwest 408 470 38,000  Level Atlanta Center
Mon 12:47:43 PM 35.9672 -80.0108 205° Southwest 408 470 38,000  Level Atlanta Center
Mon 12:48:43 PM 35.8625 -80.0647 203° Southwest 408 470 38,000  Level Atlanta Center
Mon 12:49:43 PM 35.7558 -80.1158 201° Southwest 413 475 38,000  Level Atlanta Center
Mon 12:50:43 PM 35.6408 -80.1803 204° Southwest 413 475 38,000  Level Atlanta Center
Mon 12:51:43 PM 35.5361 -80.2336 203° Southwest 408 470 38,000  Level Atlanta Center
Mon 12:52:43 PM 35.4397 -80.2814 202° Southwest 408 470 38,000  Level Atlanta Center
Mon 12:53:43 PM 35.3369 -80.3319 202° Southwest 408 470 38,000  Level Atlanta Center
Mon 12:54:43 PM 35.2319 -80.3850 202° Southwest 402 463 38,000  Level Atlanta Center
Mon 12:56:52 PM 34.9967 -80.5006 202° Southwest 408 470 38,000  Level Jacksonville Center
Mon 12:57:52 PM 34.8933 -80.5539 203° Southwest 408 470 38,000 -50 Level Jacksonville Center
Mon 12:58:52 PM 34.7942 -80.6022 202° Southwest 403 464 37,900  Descending Jacksonville Center
Mon 12:59:52 PM 34.6867 -80.6556 202° Southwest 397 457 38,000 50 Climbing Jacksonville Center
Mon 01:00:52 PM 34.5769 -80.7064 201° Southwest 416 479 38,000  Level Jacksonville Center
Mon 01:01:52 PM 34.4714 -80.7569 202° Southwest 418 481 38,000  Level Jacksonville Center
Mon 01:02:52 PM 34.3658 -80.8147 204° Southwest 418 481 38,000  Level Jacksonville Center
Mon 01:03:52 PM 34.2644 -80.8625 201° Southwest 412 474 38,000  Level Jacksonville Center
Mon 01:04:52 PM 34.1611 -80.9125 202° Southwest 401 461 38,000  Level Jacksonville Center
Mon 01:05:52 PM 34.0553 -80.9625 201° Southwest 401 461 38,000  Level Jacksonville Center
Mon 01:06:52 PM 33.9497 -81.0125 201° Southwest 411 473 38,000  Level Jacksonville Center
Mon 01:07:52 PM 33.8439 -81.0597 200° South 411 473 38,000  Level Jacksonville Center
Mon 01:08:52 PM 33.7403 -81.1142 204° Southwest 406 467 38,000  Level Jacksonville Center
Mon 01:09:52 PM 33.6369 -81.1689 204° Southwest 412 474 38,000  Level Jacksonville Center
Mon 01:10:52 PM 33.5311 -81.2181 201° Southwest 412 474 38,000  Level Jacksonville Center
Mon 01:11:52 PM 33.4294 -81.2697 203° Southwest 412 474 38,000  Level Jacksonville Center
Mon 01:12:52 PM 33.3236 -81.3214 202° Southwest 412 474 38,000  Level Jacksonville Center
Mon 01:13:52 PM 33.2406 -81.3628 203° Southwest 412 474 38,000  Level Jacksonville Center
Mon 01:14:52 PM 33.1161 -81.4219 202° Southwest 412 474 38,000  Level Jacksonville Center
Mon 01:15:52 PM 33.0103 -81.4706 201° Southwest 412 474 38,000  Level Jacksonville Center
Mon 01:16:52 PM 32.9064 -81.5242 203° Southwest 412 474 38,000  Level Jacksonville Center
Mon 01:17:52 PM 32.8028 -81.5753 203° Southwest 412 474 38,000  Level Jacksonville Center
Mon 01:18:52 PM 32.6947 -81.6239 201° Southwest 417 480 38,000  Level Jacksonville Center
Mon 01:19:52 PM 32.6033 -81.6694 203° Southwest 412 474 38,000  Level Jacksonville Center
Mon 01:20:52 PM 32.4911 -81.7275 204° Southwest 412 474 38,000  Level Jacksonville Center
Mon 01:21:52 PM 32.3953 -81.7681 200° South 412 474 38,000  Level Jacksonville Center
Mon 01:22:52 PM 32.2767 -81.8089 196° South 412 474 38,000  Level Jacksonville Center
Mon 01:23:52 PM 32.1619 -81.8275 188° South 414 476 38,000  Level Jacksonville Center
Mon 01:24:52 PM 32.0619 -81.8433 188° South 414 476 38,000  Level Jacksonville Center
Mon 01:25:52 PM 31.9369 -81.8644 188° South 414 476 38,000 50 Level Jacksonville Center
Mon 01:26:52 PM 31.8264 -81.8803 187° South 409 471 38,100  Climbing Jacksonville Center
Mon 01:27:52 PM 31.7158 -81.8961 187° South 409 471 38,000 -50 Descending Jacksonville Center
Mon 01:28:52 PM 31.6053 -81.9144 188° South 409 471 38,000  Level Jacksonville Center
Mon 01:29:52 PM 31.5072 -81.9300 188° South 404 465 38,000  Level Jacksonville Center
Mon 01:30:52 PM 31.3864 -81.9458 186° South 404 465 38,000  Level Jacksonville Center
Mon 01:31:52 PM 31.2842 -81.9689 191° South 411 473 38,000  Level Jacksonville Center
Mon 01:32:52 PM 31.1736 -81.9844 187° South 411 473 38,000 -50 Level Jacksonville Center
Mon 01:33:52 PM 31.0631 -82.0025 188° South 411 473 37,900  Descending Jacksonville Center
Mon 01:34:52 PM 30.9525 -82.0181 187° South 411 473 38,000 50 Climbing Jacksonville Center
Mon 01:35:52 PM 30.8400 -82.0336 187° South 411 473 38,000 -50 Level Jacksonville Center
Mon 01:36:52 PM 30.7294 -82.0517 188° South 411 473 37,900  Descending Jacksonville Center
Mon 01:37:52 PM 30.6147 -82.0694 188° South 411 473 38,000 50 Climbing Jacksonville Center
Mon 01:38:52 PM 30.4894 -82.0825 185° South 405 466 38,000 -50 Level Jacksonville Center
Mon 01:39:52 PM 30.3811 -82.1003 188° South 404 465 37,900 -50 Descending Jacksonville Center
Mon 01:40:52 PM 30.2683 -82.1181 188° South 404 465 37,900  Level Jacksonville Center
Mon 01:41:52 PM 30.1536 -82.1239 183° South 409 471 37,900 50 Level Jacksonville Center
Mon 01:42:52 PM 30.0386 -82.1008 170° South 409 471 38,000 50 Climbing Jacksonville Center
Mon 01:43:52 PM 29.9194 -82.0803 171° South 419 482 38,000  Level Jacksonville Center
Mon 01:44:52 PM 29.8025 -82.0572 170° South 429 494 38,000  Level Jacksonville Center
Mon 01:45:52 PM 29.6853 -82.0294 168° South 429 494 38,000 -600 Level Jacksonville Center
Mon 01:46:52 PM 29.5725 -82.0139 173° South 429 494 36,800 -1,300 Descending Jacksonville Center
Mon 01:47:52 PM 29.4533 -81.9886 170° South 429 494 35,400 -950 Descending Jacksonville Center
Mon 01:48:52 PM 29.3319 -81.9636 170° South 429 494 34,900 -350 Descending Jacksonville Center
Mon 01:49:52 PM 29.2128 -81.9386 170° South 434 499 34,700 -800 Descending Jacksonville Center
Mon 01:50:52 PM 29.0917 -81.9158 171° South 434 499 33,300 -1,389 Descending Jacksonville Center
Mon 01:53:15 PM 28.8081 -81.8567 170° South 450 518 30,000 -1,419 Descending Miami Center
Mon 01:54:15 PM 28.6878 -81.8369 172° South 445 512 28,500 -1,500 Descending Miami Center
Mon 01:55:15 PM 28.5678 -81.8128 170° South 440 506 27,000 -750 Descending Miami Center
Mon 01:56:15 PM 28.4500 -81.7792 166° South 440 506 27,000 -600 Level Miami Center
Mon 01:57:15 PM 28.3200 -81.7406 165° South 448 516 25,800 -1,350 Descending Miami Center
Mon 01:58:15 PM 28.2022 -81.7069 166° South 448 516 24,300 -1,250 Descending Miami Center
Mon 01:59:15 PM 28.0819 -81.6853 171° South 448 516 23,300 -1,000 Descending Miami Center
Mon 02:00:15 PM 27.9689 -81.6947 184° South 430 495 22,300 -950 Descending Miami Center
Mon 02:01:15 PM 27.8506 -81.6781 173° South 425 489 21,400 -1,000 Descending Miami Center
Mon 02:02:15 PM 27.7386 -81.6519 168° South 425 489 20,300 -1,000 Descending Miami Center
Mon 02:03:15 PM 27.6372 -81.6292 169° South 420 483 19,400 -1,550 Descending Miami Center
Mon 02:04:15 PM 27.5275 -81.6033 168° South 415 478 17,200 -2,300 Descending Miami Center
Mon 02:05:15 PM 27.4217 -81.5781 168° South 403 464 14,800 -1,950 Descending Miami Center
Mon 02:06:15 PM 27.3203 -81.5553 169° South 391 450 13,300 -1,500 Descending Miami Center
Mon 02:07:15 PM 27.2189 -81.5300 167° South 386 444 11,800 -1,300 Descending Miami Center
Mon 02:08:15 PM 27.1172 -81.5097 170° South 381 438 10,700 -950 Descending Miami Center
Mon 02:09:15 PM 27.0178 -81.4847 167° South 348 400 9,900 -400 Descending Miami Center
Mon 02:10:15 PM 26.9406 -81.4817 178° South 302 348 9,900 -950 Level Miami Center
Mon 02:11:15 PM 26.8692 -81.4997 193° South 290 334 8,000 -2,050 Descending Miami Center
Mon 02:12:15 PM 26.7975 -81.5203 194° South 278 320 5,800 -2,000 Descending Miami Center
Mon 02:13:15 PM 26.7214 -81.5497 199° South 278 320 4,000 -1,450 Descending Miami Center
Mon 02:14:15 PM 26.6533 -81.5842 204° Southwest 267 307 2,900 -1,050 Descending Miami Center
Mon 02:15:15 PM 26.6186 -81.6292 229° Southwest 260 299 1,900 -600 Descending Miami Center
Mon 02:16:15 PM 26.5561 -81.6822 217° Southwest 260 299 1,700 -200 Descending Miami Center
Mon 02:18:00 PM 26.4919 -81.7086 318° Northwest  Level FlightAware Approximate
Mon 02:25:00 PM 26.5333 -81.7500 318° Northwest  Level FlightAware Approximate

Login

Don't have an account? Register now (free) for customized features, flight alerts, and more!